Aurora, New York
Current Conditions -  °F | °C
As of 6:53 PM on Saturday 22 Nov 2014 (Local Time) from KPEO Reporting Station
Light Rain Light Rain  
Wind Chill: 33°   Ceiling: 2100
Heat Index: 41°   Visibility: 10mi
Dew Point: 36°   Wind: 15mph
Humidity: 82%   Direction: 210°SSW
Pressure: 30.01"   Gusts: 23mph
Location:  42.75°N, 76.7°W
Report Text: KPEO 222353Z AUTO 21013G20KT 10SM -RA BKN021 BKN040 OVC065 05/02 A3001 RMK AO2 RAB38 SLP173 P0000 60000 T00500022 10072 20050 58002
Loading
Personal Weather Stations






























Interactive Weather Map New forecast layout! Learn more

10-Day Weather Forecast

Advertisements
Track Severe Weather on mobile